Time;durP1;ratioP1;P1;durP2;ratioP2;P2;SDS_P1;SDS_P2;PMS_P1;PMS_P2;Temp;Humidity;BMP_temperature;BMP_pressure;BME280_temperature;BME280_humidity;BME280_pressure;Samples;Min_cycle;Max_cycle;Signal;HPM_P1;HPM_P2
2023/04/29 02:01:26;;;;;;;18.12;7.70;;;;;;;;;;4651577;27;20374;-72
2023/04/29 02:03:53;;;;;;;15.82;6.70;;;;;;;;;;4300911;33;20057;-73
2023/04/29 02:06:19;;;;;;;15.48;7.10;;;;;;;;;;4296197;33;20045;-73
2023/04/29 02:08:47;;;;;;;22.52;8.48;;;;;;;;;;4296098;33;20045;-73
2023/04/29 02:11:15;;;;;;;26.48;8.00;;;;;;;;;;4294622;33;20374;-73
2023/04/29 02:13:41;;;;;;;17.40;7.97;;;;;;;;;;4295489;33;20422;-73
2023/04/29 02:16:11;;;;;;;22.23;7.95;;;;;;;;;;4295817;33;20506;-74
2023/04/29 02:18:38;;;;;;;16.00;9.05;;;;;;;;;;4301439;33;20089;-73
2023/04/29 02:21:05;;;;;;;19.05;7.43;;;;;;;;;;4307155;33;20052;-74
2023/04/29 02:23:33;;;;;;;18.65;8.35;;;;;;;;;;4310886;33;20052;-73
2023/04/29 02:26:00;;;;;;;16.58;8.27;;;;;;;;;;4310355;33;20098;-73
2023/04/29 02:28:26;;;;;;;20.23;7.90;;;;;;;;;;4310295;33;20048;-74
2023/04/29 02:30:53;;;;;;;25.52;8.00;;;;;;;;;;4309698;33;20092;-74
2023/04/29 02:33:19;;;;;;;14.30;6.97;;;;;;;;;;4308376;33;20053;-74
2023/04/29 02:35:46;;;;;;;13.30;6.65;;;;;;;;;;4299161;33;20061;-74
2023/04/29 02:38:12;;;;;;;17.17;6.47;;;;;;;;;;4297611;33;20048;-73
2023/04/29 02:40:44;;;;;;;12.77;6.50;;;;;;;;;;4300843;33;20172;-73
2023/04/29 02:43:11;;;;;;;10.73;5.70;;;;;;;;;;4298570;33;20056;-74
2023/04/29 02:45:37;;;;;;;15.13;6.50;;;;;;;;;;4302541;33;20112;-74
2023/04/29 02:48:04;;;;;;;21.67;7.00;;;;;;;;;;4297408;33;20414;-74
2023/04/29 02:50:31;;;;;;;10.05;6.20;;;;;;;;;;4307883;33;20045;-73
2023/04/29 02:52:58;;;;;;;15.77;6.60;;;;;;;;;;4306166;33;20105;-75
2023/04/29 02:55:24;;;;;;;12.45;6.55;;;;;;;;;;4306983;33;20093;-74
2023/04/29 02:57:50;;;;;;;9.07;5.60;;;;;;;;;;4307431;33;20079;-74
2023/04/29 03:00:16;;;;;;;10.35;6.20;;;;;;;;;;4306148;33;20041;-75
2023/04/29 03:02:42;;;;;;;10.88;5.43;;;;;;;;;;4305915;33;20056;-74
2023/04/29 03:05:09;;;;;;;17.50;6.43;;;;;;;;;;4305910;33;20176;-74
2023/04/29 03:07:35;;;;;;;11.75;6.20;;;;;;;;;;4306138;33;20041;-73
2023/04/29 03:10:01;;;;;;;12.27;6.12;;;;;;;;;;4307727;33;20526;-74
2023/04/29 03:12:29;;;;;;;14.00;5.90;;;;;;;;;;4302994;33;20052;-74
2023/04/29 03:14:55;;;;;;;11.35;5.55;;;;;;;;;;4295240;33;20111;-74
2023/04/29 03:17:22;;;;;;;13.70;5.37;;;;;;;;;;4293699;33;20087;-74
2023/04/29 03:19:48;;;;;;;19.77;6.15;;;;;;;;;;4293123;33;20067;-74
2023/04/29 03:22:14;;;;;;;11.60;5.45;;;;;;;;;;4292595;33;20418;-74
2023/04/29 03:24:41;;;;;;;16.65;9.10;;;;;;;;;;4292911;33;20122;-74
2023/04/29 03:27:07;;;;;;;14.32;6.80;;;;;;;;;;4288936;33;20061;-74
2023/04/29 03:29:33;;;;;;;11.02;6.65;;;;;;;;;;4302443;33;20136;-74
2023/04/29 03:31:59;;;;;;;13.90;6.30;;;;;;;;;;4307158;33;20052;-74
2023/04/29 03:34:25;;;;;;;14.20;5.80;;;;;;;;;;4307431;33;20055;-74
2023/04/29 03:36:53;;;;;;;12.32;6.20;;;;;;;;;;4296588;33;20067;-75
2023/04/29 03:39:19;;;;;;;18.77;6.28;;;;;;;;;;4300233;33;20070;-75
2023/04/29 03:41:46;;;;;;;12.20;6.82;;;;;;;;;;4280862;33;20059;-74
2023/04/29 03:44:14;;;;;;;14.15;5.45;;;;;;;;;;4280900;33;20046;-75
2023/04/29 03:46:40;;;;;;;18.42;6.68;;;;;;;;;;4296137;33;20056;-75
2023/04/29 03:49:06;;;;;;;8.40;5.70;;;;;;;;;;4298825;33;20071;-75
2023/04/29 03:51:33;;;;;;;7.93;5.53;;;;;;;;;;4295166;33;20053;-75
2023/04/29 03:54:00;;;;;;;12.90;6.47;;;;;;;;;;4295255;33;20041;-74
2023/04/29 03:56:27;;;;;;;12.07;5.28;;;;;;;;;;4294336;33;20042;-74
2023/04/29 03:58:53;;;;;;;15.30;5.03;;;;;;;;;;4293754;33;20067;-75
2023/04/29 04:01:20;;;;;;;15.90;7.62;;;;;;;;;;4290555;33;20069;-74
2023/04/29 04:03:46;;;;;;;11.38;5.47;;;;;;;;;;4280628;33;20367;-73
2023/04/29 04:06:13;;;;;;;16.00;6.25;;;;;;;;;;4263899;33;20456;-73
2023/04/29 04:08:40;;;;;;;10.60;6.20;;;;;;;;;;4271606;33;20041;-73
2023/04/29 04:11:08;;;;;;;8.52;5.55;;;;;;;;;;4279063;33;20461;-74
2023/04/29 04:13:35;;;;;;;12.48;4.75;;;;;;;;;;4266691;33;20570;-73
2023/04/29 04:16:02;;;;;;;13.20;6.47;;;;;;;;;;4266475;33;20050;-72
2023/04/29 04:18:29;;;;;;;13.85;5.35;;;;;;;;;;4266512;33;20818;-74
2023/04/29 04:20:56;;;;;;;14.27;6.40;;;;;;;;;;4250759;33;20046;-74
2023/04/29 04:23:23;;;;;;;19.95;5.68;;;;;;;;;;4250537;33;20053;-74
2023/04/29 04:25:52;;;;;;;9.98;5.50;;;;;;;;;;4236019;33;20063;-73
2023/04/29 04:28:20;;;;;;;7.70;4.60;;;;;;;;;;4208686;34;20355;-73
2023/04/29 04:30:48;;;;;;;16.12;5.57;;;;;;;;;;4195817;34;20494;-72
2023/04/29 04:33:15;;;;;;;14.80;6.22;;;;;;;;;;4205449;34;20035;-73
2023/04/29 04:35:42;;;;;;;8.73;4.87;;;;;;;;;;4208167;34;20059;-74
2023/04/29 04:38:10;;;;;;;7.45;4.90;;;;;;;;;;4235877;33;20038;-74
2023/04/29 04:40:40;;;;;;;17.37;5.55;;;;;;;;;;4230650;33;20059;-73
2023/04/29 04:43:08;;;;;;;10.88;4.90;;;;;;;;;;4222225;33;20079;-75
2023/04/29 04:45:35;;;;;;;6.47;4.62;;;;;;;;;;4222069;33;20043;-73
2023/04/29 04:48:02;;;;;;;11.27;4.82;;;;;;;;;;4223758;33;20763;-72
2023/04/29 04:50:29;;;;;;;10.25;4.82;;;;;;;;;;4223223;33;20499;-73
2023/04/29 04:52:55;;;;;;;11.73;5.30;;;;;;;;;;4234750;33;20083;-73
2023/04/29 04:55:28;;;;;;;11.12;4.07;;;;;;;;;;4236600;33;20224;-74
2023/04/29 04:57:54;;;;;;;9.77;4.85;;;;;;;;;;4224749;33;20680;-73
2023/04/29 05:00:20;;;;;;;11.90;5.30;;;;;;;;;;4235927;33;20060;-73
2023/04/29 05:02:47;;;;;;;9.80;5.62;;;;;;;;;;4221943;33;20051;-73
2023/04/29 05:05:13;;;;;;;9.55;4.82;;;;;;;;;;4235686;33;20070;-73
2023/04/29 05:07:40;;;;;;;10.23;4.87;;;;;;;;;;4236196;33;20088;-74
2023/04/29 05:10:08;;;;;;;11.48;5.00;;;;;;;;;;4250085;33;20097;-74
2023/04/29 05:12:36;;;;;;;10.30;4.93;;;;;;;;;;4251831;33;20445;-75
2023/04/29 05:15:03;;;;;;;6.20;4.43;;;;;;;;;;4249153;33;20038;-74
2023/04/29 05:17:37;;;;;;;9.05;5.15;;;;;;;;;;4203040;33;20079;-74
2023/04/29 05:20:04;;;;;;;7.45;5.00;;;;;;;;;;4208247;34;20956;-73
2023/04/29 05:22:32;;;;;;;11.40;5.68;;;;;;;;;;4209063;34;20038;-74
2023/04/29 05:25:02;;;;;;;11.25;4.87;;;;;;;;;;4207490;34;20063;-73
2023/04/29 05:27:29;;;;;;;11.82;5.00;;;;;;;;;;4202583;34;20069;-74
2023/04/29 05:29:56;;;;;;;17.83;5.32;;;;;;;;;;4230740;33;20042;-75
2023/04/29 05:32:22;;;;;;;9.07;4.65;;;;;;;;;;4236663;33;20054;-73
2023/04/29 05:34:49;;;;;;;9.32;5.65;;;;;;;;;;4259047;33;20075;-73
2023/04/29 05:37:15;;;;;;;14.43;5.18;;;;;;;;;;4264345;33;20067;-74
2023/04/29 05:39:43;;;;;;;11.18;5.12;;;;;;;;;;4261726;33;20068;-76
2023/04/29 05:42:09;;;;;;;11.50;6.25;;;;;;;;;;4267400;33;20042;-75
2023/04/29 05:44:36;;;;;;;13.68;5.30;;;;;;;;;;4266624;33;20063;-74
2023/04/29 05:47:02;;;;;;;11.30;4.97;;;;;;;;;;4266939;33;20073;-74
2023/04/29 05:49:31;;;;;;;13.45;6.12;;;;;;;;;;4262408;33;20099;-75
2023/04/29 05:51:57;;;;;;;7.53;4.95;;;;;;;;;;4265859;33;20050;-74
2023/04/29 05:54:23;;;;;;;11.73;6.40;;;;;;;;;;4266915;33;20053;-74
2023/04/29 05:56:49;;;;;;;7.97;6.00;;;;;;;;;;4267161;33;20049;-75
2023/04/29 05:59:16;;;;;;;8.45;4.90;;;;;;;;;;4266859;33;20058;-75
2023/04/29 06:01:49;;;;;;;9.57;4.80;;;;;;;;;;4272282;33;20431;-76
2023/04/29 06:04:15;;;;;;;12.75;5.78;;;;;;;;;;4293028;33;20337;-76
2023/04/29 06:06:43;;;;;;;9.73;5.55;;;;;;;;;;4295799;33;20381;-76
2023/04/29 06:09:09;;;;;;;10.75;5.03;;;;;;;;;;4304010;33;20054;-77
2023/04/29 06:11:36;;;;;;;7.62;4.78;;;;;;;;;;4295711;33;20643;-73
2023/04/29 06:14:02;;;;;;;17.45;5.55;;;;;;;;;;4295145;33;20048;-76
2023/04/29 06:16:28;;;;;;;9.20;5.57;;;;;;;;;;4295777;33;20049;-76
2023/04/29 06:18:55;;;;;;;11.27;5.10;;;;;;;;;;4295167;33;20138;-76
2023/04/29 06:21:21;;;;;;;9.75;4.95;;;;;;;;;;4295735;33;20049;-75
2023/04/29 06:23:47;;;;;;;14.20;5.65;;;;;;;;;;4296618;33;20104;-75
2023/04/29 06:26:14;;;;;;;12.15;5.70;;;;;;;;;;4304695;33;20040;-76
2023/04/29 06:28:40;;;;;;;14.40;5.78;;;;;;;;;;4295469;33;20056;-75
2023/04/29 06:31:07;;;;;;;14.82;5.55;;;;;;;;;;4294671;33;20075;-76
2023/04/29 06:33:34;;;;;;;10.23;5.50;;;;;;;;;;4299626;33;20062;-75
2023/04/29 06:36:00;;;;;;;11.50;5.07;;;;;;;;;;4298200;33;20040;-75
2023/04/29 06:38:29;;;;;;;10.23;5.55;;;;;;;;;;4299062;33;20063;-76
2023/04/29 06:40:59;;;;;;;9.65;5.62;;;;;;;;;;4298141;33;20243;-75
2023/04/29 06:43:26;;;;;;;8.50;5.40;;;;;;;;;;4293114;33;20469;-74
2023/04/29 06:45:54;;;;;;;8.95;5.90;;;;;;;;;;4292913;33;20079;-75
2023/04/29 06:48:21;;;;;;;7.82;5.68;;;;;;;;;;4291113;33;20042;-73
2023/04/29 06:50:54;;;;;;;11.75;5.35;;;;;;;;;;4291306;33;20041;-73
2023/04/29 06:53:21;;;;;;;11.40;6.20;;;;;;;;;;4292878;33;20064;-72
2023/04/29 06:55:47;;;;;;;15.00;5.20;;;;;;;;;;4297025;33;20085;-73
2023/04/29 06:58:15;;;;;;;14.60;6.57;;;;;;;;;;4296324;33;20438;-73
2023/04/29 07:00:45;;;;;;;12.98;6.40;;;;;;;;;;4280876;33;20041;-74
2023/04/29 07:03:12;;;;;;;10.77;5.53;;;;;;;;;;4281475;33;20061;-73
2023/04/29 07:05:39;;;;;;;9.32;5.78;;;;;;;;;;4279471;33;20069;-75
2023/04/29 07:08:07;;;;;;;14.52;6.15;;;;;;;;;;4245061;33;20042;-73
2023/04/29 07:10:33;;;;;;;18.70;6.22;;;;;;;;;;4235737;33;20061;-78
2023/04/29 07:12:59;;;;;;;11.07;6.12;;;;;;;;;;4209759;33;20055;-79
2023/04/29 07:15:26;;;;;;;13.43;6.32;;;;;;;;;;4208458;34;20267;-74
2023/04/29 07:17:53;;;;;;;9.88;5.93;;;;;;;;;;4208309;34;20065;-74
2023/04/29 07:20:19;;;;;;;8.70;5.55;;;;;;;;;;4222649;33;20043;-73
2023/04/29 07:22:45;;;;;;;10.52;6.65;;;;;;;;;;4235278;33;20050;-87
2023/04/29 07:25:12;;;;;;;13.52;6.43;;;;;;;;;;4238394;33;20068;-73
2023/04/29 07:27:38;;;;;;;13.60;6.30;;;;;;;;;;4237186;33;20845;-73
2023/04/29 07:30:04;;;;;;;11.85;6.80;;;;;;;;;;4236789;33;20064;-76
2023/04/29 07:32:31;;;;;;;11.77;6.65;;;;;;;;;;4249233;33;20071;-73
2023/04/29 07:35:01;;;;;;;11.50;6.03;;;;;;;;;;4250681;33;20075;-85
2023/04/29 07:37:28;;;;;;;11.80;5.80;;;;;;;;;;4248472;33;20478;-72
2023/04/29 07:39:53;;;;;;;13.80;5.85;;;;;;;;;;4287610;33;20037;-72
2023/04/29 07:42:21;;;;;;;14.20;5.53;;;;;;;;;;4296366;33;20499;-73
2023/04/29 07:44:47;;;;;;;16.65;6.20;;;;;;;;;;4295386;33;20081;-72
2023/04/29 07:47:14;;;;;;;16.65;5.87;;;;;;;;;;4299600;33;20045;-83
2023/04/29 07:49:40;;;;;;;11.70;5.82;;;;;;;;;;4293071;33;20050;-74
2023/04/29 07:52:08;;;;;;;16.00;6.62;;;;;;;;;;4294962;33;20053;-73
2023/04/29 07:54:35;;;;;;;10.30;6.55;;;;;;;;;;4295660;33;20021;-71
2023/04/29 07:57:03;;;;;;;13.70;6.18;;;;;;;;;;4294128;33;20042;-76
2023/04/29 07:59:30;;;;;;;12.63;7.28;;;;;;;;;;4294113;33;20033;-86
2023/04/29 08:01:56;;;;;;;11.12;6.57;;;;;;;;;;4292708;33;20057;-78
2023/04/29 08:04:23;;;;;;;9.02;5.28;;;;;;;;;;4293563;33;20044;-75
2023/04/29 08:06:50;;;;;;;10.70;5.78;;;;;;;;;;4294985;33;20451;-72
2023/04/29 08:09:16;;;;;;;14.30;6.35;;;;;;;;;;4295089;33;20067;-72
2023/04/29 08:11:43;;;;;;;14.98;6.75;;;;;;;;;;4296444;33;20049;-86
2023/04/29 08:14:11;;;;;;;12.70;7.28;;;;;;;;;;4295989;33;20107;-73
2023/04/29 08:16:38;;;;;;;17.92;6.65;;;;;;;;;;4294089;33;20152;-76
2023/04/29 08:19:04;;;;;;;15.45;5.87;;;;;;;;;;4295281;33;20041;-73
2023/04/29 08:21:31;;;;;;;14.57;6.85;;;;;;;;;;4293366;33;20437;-81
2023/04/29 08:23:57;;;;;;;10.80;6.35;;;;;;;;;;4296455;33;20071;-72
2023/04/29 08:26:24;;;;;;;18.20;6.97;;;;;;;;;;4297771;33;20115;-73
2023/04/29 08:28:50;;;;;;;8.55;5.90;;;;;;;;;;4297678;33;20045;-72
2023/04/29 08:31:19;;;;;;;11.73;6.95;;;;;;;;;;4297537;33;20395;-73
2023/04/29 08:33:46;;;;;;;16.35;6.53;;;;;;;;;;4295907;33;20066;-83
2023/04/29 08:36:12;;;;;;;11.50;6.85;;;;;;;;;;4299630;33;20064;-72
2023/04/29 08:38:38;;;;;;;17.73;7.43;;;;;;;;;;4294458;33;20034;-76
2023/04/29 08:41:11;;;;;;;14.68;6.82;;;;;;;;;;4298196;33;20056;-71
2023/04/29 08:43:39;;;;;;;12.43;6.50;;;;;;;;;;4306927;33;20049;-74
2023/04/29 08:46:06;;;;;;;11.60;6.68;;;;;;;;;;4297079;33;20044;-75
2023/04/29 08:48:33;;;;;;;9.50;6.65;;;;;;;;;;4294692;33;20188;-75
2023/04/29 08:51:06;;;;;;;10.70;6.53;;;;;;;;;;4295114;33;20070;-75
2023/04/29 08:53:32;;;;;;;13.18;6.43;;;;;;;;;;4293262;33;20074;-75
2023/04/29 08:56:02;;;;;;;13.57;6.75;;;;;;;;;;4291481;33;20045;-75
2023/04/29 08:58:31;;;;;;;14.38;7.20;;;;;;;;;;4294802;33;20123;-76
2023/04/29 09:00:58;;;;;;;15.05;7.50;;;;;;;;;;4295772;33;20104;-75
2023/04/29 09:03:26;;;;;;;23.25;7.05;;;;;;;;;;4301903;33;20114;-74
2023/04/29 09:05:54;;;;;;;14.63;7.57;;;;;;;;;;4294224;33;20132;-75
2023/04/29 09:08:23;;;;;;;11.07;7.20;;;;;;;;;;4294028;33;20144;-75
2023/04/29 09:10:52;;;;;;;18.20;6.65;;;;;;;;;;4276274;33;20478;-75
2023/04/29 09:13:28;;;;;;;13.77;7.97;;;;;;;;;;4274817;33;20025;-75
2023/04/29 09:15:55;;;;;;;16.92;8.18;;;;;;;;;;4265905;33;20079;-74
2023/04/29 09:18:40;;;;;;;11.45;7.35;;;;;;;;;;4263148;33;20053;-75
2023/04/29 09:21:11;;;;;;;10.15;6.75;;;;;;;;;;4257259;33;20087;-75
2023/04/29 09:23:38;;;;;;;12.07;7.28;;;;;;;;;;4258230;33;20081;-75
2023/04/29 09:26:04;;;;;;;15.98;6.97;;;;;;;;;;4262718;33;20396;-76
2023/04/29 09:28:30;;;;;;;14.80;6.78;;;;;;;;;;4267323;33;20338;-76
2023/04/29 09:30:57;;;;;;;10.50;6.10;;;;;;;;;;4264236;33;20203;-76
2023/04/29 09:33:24;;;;;;;10.48;6.57;;;;;;;;;;4265477;33;20466;-76
2023/04/29 09:35:51;;;;;;;10.80;6.37;;;;;;;;;;4254890;33;20059;-77
2023/04/29 09:38:17;;;;;;;10.90;5.55;;;;;;;;;;4255783;33;20124;-76
2023/04/29 09:40:43;;;;;;;10.27;5.75;;;;;;;;;;4256859;33;20056;-77
2023/04/29 09:43:12;;;;;;;17.60;6.07;;;;;;;;;;4286024;33;20054;-76
2023/04/29 09:45:42;;;;;;;7.93;5.97;;;;;;;;;;4284778;33;20102;-76
2023/04/29 09:48:09;;;;;;;13.50;6.15;;;;;;;;;;4281995;33;20072;-76
2023/04/29 09:50:36;;;;;;;11.68;6.05;;;;;;;;;;4286401;33;20239;-76
2023/04/29 09:53:03;;;;;;;12.75;6.15;;;;;;;;;;4289441;33;20538;-76
2023/04/29 09:55:29;;;;;;;10.85;7.15;;;;;;;;;;4286316;33;20041;-76
2023/04/29 09:58:02;;;;;;;12.55;7.35;;;;;;;;;;4285601;33;20046;-76
2023/04/29 10:00:30;;;;;;;18.23;6.68;;;;;;;;;;4285077;33;20099;-75
2023/04/29 10:02:57;;;;;;;12.90;6.72;;;;;;;;;;4294293;33;20395;-75
2023/04/29 10:05:26;;;;;;;12.37;6.28;;;;;;;;;;4259221;33;20043;-75
2023/04/29 10:07:53;;;;;;;12.63;6.87;;;;;;;;;;4262117;33;20120;-75
2023/04/29 10:10:20;;;;;;;11.32;6.20;;;;;;;;;;4263615;33;20473;-76
2023/04/29 10:12:46;;;;;;;14.25;7.00;;;;;;;;;;4265035;33;20166;-76
2023/04/29 10:15:19;;;;;;;17.45;6.80;;;;;;;;;;4264606;33;20166;-75
2023/04/29 10:17:48;;;;;;;15.52;7.10;;;;;;;;;;4264929;33;20041;-76
2023/04/29 10:20:18;;;;;;;11.65;6.47;;;;;;;;;;4266366;33;20053;-76
2023/04/29 10:22:48;;;;;;;16.98;7.22;;;;;;;;;;4265218;33;20107;-76
2023/04/29 10:25:15;;;;;;;11.52;6.20;;;;;;;;;;4265057;33;20038;-75
2023/04/29 10:27:43;;;;;;;9.80;4.85;;;;;;;;;;4264818;33;20345;-75
2023/04/29 10:30:16;;;;;;;7.85;3.65;;;;;;;;;;4235654;33;20064;-74
2023/04/29 10:32:44;;;;;;;6.28;4.37;;;;;;;;;;4250701;33;20083;-73
2023/04/29 10:35:13;;;;;;;5.05;4.22;;;;;;;;;;4250435;33;20401;-74
2023/04/29 10:37:43;;;;;;;7.37;5.00;;;;;;;;;;4248947;33;20046;-74
2023/04/29 10:40:26;;;;;;;9.07;4.40;;;;;;;;;;4248644;33;20057;-74
2023/04/29 10:42:53;;;;;;;10.35;4.65;;;;;;;;;;4252000;33;20093;-74
2023/04/29 10:45:26;;;;;;;9.35;4.28;;;;;;;;;;4251254;33;20177;-74
2023/04/29 10:48:04;;;;;;;6.28;4.22;;;;;;;;;;4269898;33;20409;-74
2023/04/29 10:50:31;;;;;;;5.53;3.67;;;;;;;;;;4274321;33;20057;-74
2023/04/29 10:53:00;;;;;;;7.10;3.50;;;;;;;;;;4272060;33;20081;-73
2023/04/29 10:55:26;;;;;;;14.57;4.35;;;;;;;;;;4271345;33;20078;-73
2023/04/29 10:57:55;;;;;;;7.03;3.92;;;;;;;;;;4270518;33;20490;-73
2023/04/29 11:03:30;;;;;;;4.78;3.72;;;;;;;;;;4074560;31;20214;-73
2023/04/29 11:06:07;;;;;;;4.93;4.10;;;;;;;;;;4290588;33;20049;-73
2023/04/29 11:08:38;;;;;;;5.35;3.62;;;;;;;;;;4290794;33;20466;-73
2023/04/29 11:11:08;;;;;;;10.20;4.62;;;;;;;;;;4289613;33;20041;-74
2023/04/29 11:13:40;;;;;;;7.72;4.30;;;;;;;;;;4291384;33;20067;-73
2023/04/29 11:16:07;;;;;;;10.70;5.35;;;;;;;;;;4291949;33;20041;-73
2023/04/29 11:18:34;;;;;;;8.73;5.03;;;;;;;;;;4295325;33;20041;-73
2023/04/29 11:21:03;;;;;;;12.10;5.05;;;;;;;;;;4298963;33;20063;-74
2023/04/29 11:23:30;;;;;;;6.65;4.90;;;;;;;;;;4296111;33;20045;-73
2023/04/29 11:25:56;;;;;;;8.10;5.37;;;;;;;;;;4296263;33;20049;-72
2023/04/29 11:28:23;;;;;;;12.35;4.60;;;;;;;;;;4294926;33;20052;-73
2023/04/29 11:30:50;;;;;;;11.43;4.10;;;;;;;;;;4302145;33;20078;-73
2023/04/29 11:33:16;;;;;;;10.60;5.95;;;;;;;;;;4293651;33;20345;-74
2023/04/29 11:35:42;;;;;;;13.23;5.93;;;;;;;;;;4306240;33;20063;-72
2023/04/29 11:38:08;;;;;;;7.03;5.47;;;;;;;;;;4305977;33;20045;-71
2023/04/29 11:40:34;;;;;;;9.07;5.68;;;;;;;;;;4306898;33;20104;-72
2023/04/29 11:43:00;;;;;;;9.48;4.43;;;;;;;;;;4307165;33;20140;-72
2023/04/29 11:45:27;;;;;;;6.45;4.53;;;;;;;;;;4304462;33;20057;-72
2023/04/29 11:47:53;;;;;;;10.20;4.90;;;;;;;;;;4308615;33;20069;-75
2023/04/29 11:50:19;;;;;;;13.75;5.62;;;;;;;;;;4311298;33;20082;-73
2023/04/29 11:52:46;;;;;;;9.73;6.45;;;;;;;;;;4306902;33;20072;-72
2023/04/29 11:55:13;;;;;;;16.20;6.65;;;;;;;;;;4303655;33;20053;-72
2023/04/29 11:57:39;;;;;;;13.18;6.05;;;;;;;;;;4303574;33;20049;-72
2023/04/29 12:00:11;;;;;;;10.65;5.25;;;;;;;;;;4306632;33;20094;-72
2023/04/29 12:02:37;;;;;;;13.85;6.78;;;;;;;;;;4305190;33;20041;-72
2023/04/29 12:05:11;;;;;;;11.15;5.85;;;;;;;;;;4316259;33;20419;-72
2023/04/29 12:07:38;;;;;;;10.77;5.55;;;;;;;;;;4297571;33;20496;-73
2023/04/29 12:10:11;;;;;;;18.35;6.00;;;;;;;;;;4294699;33;20079;-72
2023/04/29 12:12:39;;;;;;;9.60;5.22;;;;;;;;;;4290963;33;20150;-72
2023/04/29 12:15:06;;;;;;;10.35;4.60;;;;;;;;;;4298907;33;20161;-73
2023/04/29 12:17:32;;;;;;;14.55;4.62;;;;;;;;;;4286651;33;20041;-73
2023/04/29 12:19:59;;;;;;;16.83;5.78;;;;;;;;;;4281423;33;20083;-72
2023/04/29 12:22:31;;;;;;;10.43;5.53;;;;;;;;;;4285502;33;20041;-72
2023/04/29 12:24:58;;;;;;;6.07;5.07;;;;;;;;;;4284850;33;20545;-74
2023/04/29 12:27:25;;;;;;;9.10;4.50;;;;;;;;;;4292066;33;20175;-74
2023/04/29 12:29:51;;;;;;;11.25;4.57;;;;;;;;;;4291985;33;20079;-72
2023/04/29 12:32:21;;;;;;;9.30;4.70;;;;;;;;;;4292653;33;20624;-73
2023/04/29 12:34:49;;;;;;;6.82;4.22;;;;;;;;;;4293014;33;20055;-73
2023/04/29 12:37:15;;;;;;;12.40;5.10;;;;;;;;;;4297020;33;20041;-73
2023/04/29 12:39:42;;;;;;;9.75;4.93;;;;;;;;;;4293500;33;20045;-74
2023/04/29 12:42:13;;;;;;;12.23;5.15;;;;;;;;;;4296860;33;20124;-74
2023/04/29 12:44:40;;;;;;;7.35;5.40;;;;;;;;;;4297064;33;20198;-74
2023/04/29 12:47:07;;;;;;;11.63;5.65;;;;;;;;;;4296708;33;20049;-72
2023/04/29 12:49:33;;;;;;;13.65;5.30;;;;;;;;;;4294664;33;20045;-74
2023/04/29 12:51:59;;;;;;;12.27;5.45;;;;;;;;;;4296750;33;20744;-74
2023/04/29 12:54:26;;;;;;;9.43;5.15;;;;;;;;;;4297022;33;20044;-73
2023/04/29 12:56:52;;;;;;;8.35;5.47;;;;;;;;;;4296475;33;20061;-73
2023/04/29 12:59:19;;;;;;;13.38;5.55;;;;;;;;;;4279184;33;20115;-76
2023/04/29 13:01:45;;;;;;;12.30;5.62;;;;;;;;;;4277141;33;20046;-74
2023/04/29 13:04:12;;;;;;;17.17;6.60;;;;;;;;;;4278452;33;20425;-74
2023/04/29 13:06:38;;;;;;;10.73;5.80;;;;;;;;;;4278439;33;20065;-73
2023/04/29 13:09:10;;;;;;;16.02;7.15;;;;;;;;;;4279045;33;20105;-73
2023/04/29 13:11:38;;;;;;;10.43;5.95;;;;;;;;;;4290859;33;20115;-72
2023/04/29 13:14:05;;;;;;;7.37;4.87;;;;;;;;;;4289764;33;20137;-73
2023/04/29 13:16:32;;;;;;;9.50;4.75;;;;;;;;;;4292949;33;20068;-73
2023/04/29 13:18:59;;;;;;;12.57;5.82;;;;;;;;;;4293522;33;20120;-72
2023/04/29 13:21:26;;;;;;;11.38;5.87;;;;;;;;;;4281123;33;20096;-75
2023/04/29 13:23:53;;;;;;;14.50;6.18;;;;;;;;;;4278369;33;20410;-73
2023/04/29 13:26:19;;;;;;;20.15;5.55;;;;;;;;;;4277187;33;20025;-74
2023/04/29 13:28:46;;;;;;;10.60;6.75;;;;;;;;;;4264244;33;20125;-74
2023/04/29 13:31:12;;;;;;;17.70;6.85;;;;;;;;;;4276852;33;20034;-74
2023/04/29 13:33:38;;;;;;;13.40;6.60;;;;;;;;;;4278827;33;20093;-73
2023/04/29 13:36:04;;;;;;;15.50;7.12;;;;;;;;;;4276760;33;20097;-75
2023/04/29 13:38:31;;;;;;;14.48;6.57;;;;;;;;;;4275602;33;20038;-73
2023/04/29 13:40:57;;;;;;;14.95;6.60;;;;;;;;;;4277645;33;20536;-74
2023/04/29 13:43:24;;;;;;;17.12;6.85;;;;;;;;;;4256854;33;20397;-73
2023/04/29 13:45:50;;;;;;;12.73;6.30;;;;;;;;;;4278181;33;20049;-72
2023/04/29 13:48:17;;;;;;;8.10;5.57;;;;;;;;;;4276126;33;20456;-72
2023/04/29 13:50:44;;;;;;;11.02;6.37;;;;;;;;;;4275502;33;20516;-73
2023/04/29 13:53:10;;;;;;;13.05;6.75;;;;;;;;;;4277044;33;20105;-73
2023/04/29 13:55:37;;;;;;;13.65;5.55;;;;;;;;;;4277994;33;20029;-73
2023/04/29 13:58:03;;;;;;;10.32;5.85;;;;;;;;;;4275514;33;20049;-73
2023/04/29 14:00:29;;;;;;;7.78;5.60;;;;;;;;;;4287012;33;20096;-73
2023/04/29 14:02:56;;;;;;;14.10;5.50;;;;;;;;;;4302945;33;20053;-74
2023/04/29 14:05:22;;;;;;;12.40;5.22;;;;;;;;;;4308412;33;20060;-73
2023/04/29 14:07:48;;;;;;;10.15;4.93;;;;;;;;;;4293758;33;20080;-74
2023/04/29 14:10:15;;;;;;;9.75;5.80;;;;;;;;;;4292497;33;20067;-74
2023/04/29 14:12:41;;;;;;;8.70;5.37;;;;;;;;;;4291615;33;20176;-76
2023/04/29 14:15:14;;;;;;;9.55;5.62;;;;;;;;;;4291506;33;20045;-75
2023/04/29 14:17:41;;;;;;;13.38;4.62;;;;;;;;;;4279398;33;20193;-74
2023/04/29 14:20:08;;;;;;;6.87;5.47;;;;;;;;;;4278795;33;20165;-73
2023/04/29 14:22:34;;;;;;;9.55;4.50;;;;;;;;;;4288104;33;20168;-75
2023/04/29 14:25:00;;;;;;;6.47;3.83;;;;;;;;;;4275540;33;20067;-73
2023/04/29 14:27:26;;;;;;;15.32;4.43;;;;;;;;;;4278691;33;21335;-74
2023/04/29 14:29:52;;;;;;;7.10;4.78;;;;;;;;;;4278934;33;20077;-74
2023/04/29 14:32:18;;;;;;;14.20;4.95;;;;;;;;;;4278178;33;20139;-73
2023/04/29 14:34:45;;;;;;;7.37;4.97;;;;;;;;;;4275440;33;20049;-73
2023/04/29 14:37:11;;;;;;;6.82;4.47;;;;;;;;;;4254790;33;20124;-73
2023/04/29 14:39:38;;;;;;;12.10;4.75;;;;;;;;;;4247184;33;20093;-74
2023/04/29 14:42:04;;;;;;;6.80;5.00;;;;;;;;;;4232714;33;20065;-73
2023/04/29 14:44:30;;;;;;;7.10;4.35;;;;;;;;;;4243999;33;20435;-73
2023/04/29 14:46:57;;;;;;;10.68;7.15;;;;;;;;;;4242623;33;20397;-73
2023/04/29 14:49:23;;;;;;;8.43;5.22;;;;;;;;;;4242390;33;20243;-73
2023/04/29 14:51:49;;;;;;;12.98;4.90;;;;;;;;;;4241542;33;20735;-73
2023/04/29 14:54:15;;;;;;;6.80;4.30;;;;;;;;;;4258824;33;20033;-72
2023/04/29 14:56:41;;;;;;;11.65;4.68;;;;;;;;;;4259101;33;20427;-73
2023/04/29 14:59:08;;;;;;;8.25;5.03;;;;;;;;;;4255851;33;20067;-74
2023/04/29 15:01:34;;;;;;;8.10;4.70;;;;;;;;;;4258236;33;20430;-72
2023/04/29 15:04:00;;;;;;;11.63;4.50;;;;;;;;;;4278812;33;20087;-72
2023/04/29 15:06:27;;;;;;;14.10;5.57;;;;;;;;;;4278830;33;20399;-73
2023/04/29 15:08:53;;;;;;;8.93;5.32;;;;;;;;;;4277943;33;20083;-72
2023/04/29 15:11:20;;;;;;;5.85;4.87;;;;;;;;;;4276809;33;20067;-75
2023/04/29 15:13:46;;;;;;;8.18;6.07;;;;;;;;;;4258096;33;20041;-73
2023/04/29 15:16:13;;;;;;;13.05;6.40;;;;;;;;;;4236408;33;20060;-72
2023/04/29 15:18:39;;;;;;;7.90;5.10;;;;;;;;;;4262998;33;20496;-72
2023/04/29 15:21:05;;;;;;;16.12;6.18;;;;;;;;;;4263041;33;20068;-73
2023/04/29 15:23:31;;;;;;;11.63;5.78;;;;;;;;;;4261731;33;20326;-74
2023/04/29 15:25:58;;;;;;;15.63;6.07;;;;;;;;;;4247824;33;20050;-73
2023/04/29 15:28:24;;;;;;;15.95;6.93;;;;;;;;;;4246430;33;20489;-73
2023/04/29 15:30:51;;;;;;;15.70;7.20;;;;;;;;;;4246687;33;20064;-74
2023/04/29 15:33:17;;;;;;;8.88;6.45;;;;;;;;;;4244305;33;20034;-74
2023/04/29 15:35:43;;;;;;;12.50;6.45;;;;;;;;;;4248053;33;20046;-75
2023/04/29 15:38:10;;;;;;;15.80;8.40;;;;;;;;;;4249265;33;20478;-74
2023/04/29 15:40:37;;;;;;;9.95;6.32;;;;;;;;;;4248729;33;20050;-74
2023/04/29 15:43:03;;;;;;;11.70;6.45;;;;;;;;;;4249984;33;20052;-73
2023/04/29 15:45:29;;;;;;;12.48;7.80;;;;;;;;;;4265373;33;20042;-75
2023/04/29 15:48:02;;;;;;;11.90;7.18;;;;;;;;;;4285100;33;20061;-75
2023/04/29 15:50:28;;;;;;;12.00;6.87;;;;;;;;;;4291519;33;20343;-73
2023/04/29 15:52:57;;;;;;;10.80;6.25;;;;;;;;;;4291364;33;20100;-72
2023/04/29 15:55:24;;;;;;;9.70;6.93;;;;;;;;;;4291900;33;20053;-73
2023/04/29 15:57:50;;;;;;;9.68;6.40;;;;;;;;;;4293211;33;20053;-75
2023/04/29 16:00:17;;;;;;;18.45;8.32;;;;;;;;;;4294289;33;20060;-73
2023/04/29 16:02:43;;;;;;;15.23;7.20;;;;;;;;;;4293834;33;20095;-73
2023/04/29 16:05:10;;;;;;;10.05;7.30;;;;;;;;;;4297335;33;20038;-73
2023/04/29 16:07:36;;;;;;;9.88;7.00;;;;;;;;;;4297905;33;20469;-73
2023/04/29 16:10:02;;;;;;;18.12;7.20;;;;;;;;;;4295938;33;20399;-74
2023/04/29 16:12:28;;;;;;;11.25;7.20;;;;;;;;;;4297998;33;20091;-74
2023/04/29 16:14:54;;;;;;;11.95;6.35;;;;;;;;;;4301763;33;20111;-74
2023/04/29 16:17:21;;;;;;;8.55;6.65;;;;;;;;;;4300490;33;20063;-74
2023/04/29 16:19:47;;;;;;;17.33;6.68;;;;;;;;;;4302076;33;20041;-74
2023/04/29 16:22:13;;;;;;;15.30;7.70;;;;;;;;;;4300143;33;20530;-75
2023/04/29 16:24:39;;;;;;;11.85;7.32;;;;;;;;;;4302957;33;20875;-74
2023/04/29 16:27:06;;;;;;;8.93;6.65;;;;;;;;;;4302678;33;20100;-74
2023/04/29 16:29:32;;;;;;;12.05;7.50;;;;;;;;;;4300654;33;20082;-74
2023/04/29 16:31:58;;;;;;;10.50;6.85;;;;;;;;;;4301988;33;20078;-74
2023/04/29 16:34:25;;;;;;;13.27;6.82;;;;;;;;;;4308376;33;20434;-74
2023/04/29 16:36:51;;;;;;;13.27;6.78;;;;;;;;;;4309420;33;20033;-74